sensor_id;sensor_type;location;lat;lon;timestamp;temperature;humidity
22966;DHT22;11649;48.090;9.754;2023-04-03T00:01:17;4.80;99.90
22966;DHT22;11649;48.090;9.754;2023-04-03T00:03:44;4.80;99.90
22966;DHT22;11649;48.090;9.754;2023-04-03T00:06:12;4.80;99.90
22966;DHT22;11649;48.090;9.754;2023-04-03T00:08:39;4.70;99.90
22966;DHT22;11649;48.090;9.754;2023-04-03T00:11:07;4.70;99.90
22966;DHT22;11649;48.090;9.754;2023-04-03T00:13:35;4.70;99.90
22966;DHT22;11649;48.090;9.754;2023-04-03T00:16:02;4.70;99.90
22966;DHT22;11649;48.090;9.754;2023-04-03T00:18:30;4.70;99.90
22966;DHT22;11649;48.090;9.754;2023-04-03T00:20:57;4.70;99.90
22966;DHT22;11649;48.090;9.754;2023-04-03T00:23:23;4.70;99.90
22966;DHT22;11649;48.090;9.754;2023-04-03T00:25:51;4.70;99.90
22966;DHT22;11649;48.090;9.754;2023-04-03T00:28:18;4.60;99.90
22966;DHT22;11649;48.090;9.754;2023-04-03T00:30:45;4.70;99.90
22966;DHT22;11649;48.090;9.754;2023-04-03T00:33:13;4.60;99.90
22966;DHT22;11649;48.090;9.754;2023-04-03T00:35:40;4.60;99.90
22966;DHT22;11649;48.090;9.754;2023-04-03T00:38:07;4.50;99.90
22966;DHT22;11649;48.090;9.754;2023-04-03T00:40:37;4.40;99.90
22966;DHT22;11649;48.090;9.754;2023-04-03T00:43:20;4.40;99.90
22966;DHT22;11649;48.090;9.754;2023-04-03T00:45:53;4.40;99.90
22966;DHT22;11649;48.090;9.754;2023-04-03T00:48:29;4.30;99.90
22966;DHT22;11649;48.090;9.754;2023-04-03T00:50:58;4.20;99.90
22966;DHT22;11649;48.090;9.754;2023-04-03T00:53:38;4.30;99.90
22966;DHT22;11649;48.090;9.754;2023-04-03T00:56:08;4.30;99.90
22966;DHT22;11649;48.090;9.754;2023-04-03T00:58:41;4.30;99.90
22966;DHT22;11649;48.090;9.754;2023-04-03T01:01:14;4.40;99.90
22966;DHT22;11649;48.090;9.754;2023-04-03T01:03:42;4.40;99.90
22966;DHT22;11649;48.090;9.754;2023-04-03T01:06:09;4.40;99.90
22966;DHT22;11649;48.090;9.754;2023-04-03T01:08:36;4.40;99.90
22966;DHT22;11649;48.090;9.754;2023-04-03T01:11:03;4.40;99.90
22966;DHT22;11649;48.090;9.754;2023-04-03T01:13:32;4.40;99.90
22966;DHT22;11649;48.090;9.754;2023-04-03T01:16:04;4.30;99.90
22966;DHT22;11649;48.090;9.754;2023-04-03T01:18:32;4.30;99.90
22966;DHT22;11649;48.090;9.754;2023-04-03T01:21:26;4.30;99.90
22966;DHT22;11649;48.090;9.754;2023-04-03T01:26:45;4.40;99.90
22966;DHT22;11649;48.090;9.754;2023-04-03T01:29:12;4.40;99.90
22966;DHT22;11649;48.090;9.754;2023-04-03T01:32:00;4.40;99.90
22966;DHT22;11649;48.090;9.754;2023-04-03T01:34:28;4.40;99.90
22966;DHT22;11649;48.090;9.754;2023-04-03T01:36:55;4.40;99.90
22966;DHT22;11649;48.090;9.754;2023-04-03T01:39:22;4.40;99.90
22966;DHT22;11649;48.090;9.754;2023-04-03T01:41:49;4.30;99.90
22966;DHT22;11649;48.090;9.754;2023-04-03T01:44:16;4.30;99.90
22966;DHT22;11649;48.090;9.754;2023-04-03T01:46:43;4.30;99.90
22966;DHT22;11649;48.090;9.754;2023-04-03T01:49:10;4.20;99.90
22966;DHT22;11649;48.090;9.754;2023-04-03T01:51:37;4.30;99.90
22966;DHT22;11649;48.090;9.754;2023-04-03T01:54:04;4.40;99.90
22966;DHT22;11649;48.090;9.754;2023-04-03T01:56:31;4.40;99.90
22966;DHT22;11649;48.090;9.754;2023-04-03T01:58:57;4.30;99.90
22966;DHT22;11649;48.090;9.754;2023-04-03T02:01:24;4.20;99.90
22966;DHT22;11649;48.090;9.754;2023-04-03T02:03:52;4.20;99.90
22966;DHT22;11649;48.090;9.754;2023-04-03T02:06:19;4.20;99.90
22966;DHT22;11649;48.090;9.754;2023-04-03T02:08:46;4.10;99.90
22966;DHT22;11649;48.090;9.754;2023-04-03T02:11:13;4.10;99.90
22966;DHT22;11649;48.090;9.754;2023-04-03T02:13:40;4.10;99.90
22966;DHT22;11649;48.090;9.754;2023-04-03T02:16:11;4.00;99.90
22966;DHT22;11649;48.090;9.754;2023-04-03T02:18:39;4.00;99.90
22966;DHT22;11649;48.090;9.754;2023-04-03T02:21:06;4.00;99.90
22966;DHT22;11649;48.090;9.754;2023-04-03T02:23:33;3.90;99.90
22966;DHT22;11649;48.090;9.754;2023-04-03T02:26:07;3.90;99.90
22966;DHT22;11649;48.090;9.754;2023-04-03T02:28:34;3.90;99.90
22966;DHT22;11649;48.090;9.754;2023-04-03T02:31:03;4.00;99.90
22966;DHT22;11649;48.090;9.754;2023-04-03T02:33:30;4.10;99.90
22966;DHT22;11649;48.090;9.754;2023-04-03T02:35:57;4.10;99.90
22966;DHT22;11649;48.090;9.754;2023-04-03T02:38:25;4.10;99.90
22966;DHT22;11649;48.090;9.754;2023-04-03T02:40:52;4.00;99.90
22966;DHT22;11649;48.090;9.754;2023-04-03T02:43:19;4.00;99.90
22966;DHT22;11649;48.090;9.754;2023-04-03T02:45:46;4.00;99.90
22966;DHT22;11649;48.090;9.754;2023-04-03T02:48:13;4.10;99.90
22966;DHT22;11649;48.090;9.754;2023-04-03T02:50:41;4.10;99.90
22966;DHT22;11649;48.090;9.754;2023-04-03T02:53:08;4.10;99.90
22966;DHT22;11649;48.090;9.754;2023-04-03T02:55:35;4.00;99.90
22966;DHT22;11649;48.090;9.754;2023-04-03T02:58:01;4.10;99.90
22966;DHT22;11649;48.090;9.754;2023-04-03T03:00:28;4.00;99.90
22966;DHT22;11649;48.090;9.754;2023-04-03T03:02:55;4.00;99.90
22966;DHT22;11649;48.090;9.754;2023-04-03T03:05:22;4.00;99.90
22966;DHT22;11649;48.090;9.754;2023-04-03T03:07:49;4.10;99.90
22966;DHT22;11649;48.090;9.754;2023-04-03T03:10:16;4.10;99.90
22966;DHT22;11649;48.090;9.754;2023-04-03T03:12:43;4.10;99.90
22966;DHT22;11649;48.090;9.754;2023-04-03T03:15:10;4.10;99.90
22966;DHT22;11649;48.090;9.754;2023-04-03T03:17:37;4.10;99.90
22966;DHT22;11649;48.090;9.754;2023-04-03T03:20:05;4.10;99.90
22966;DHT22;11649;48.090;9.754;2023-04-03T03:22:33;4.10;99.90
22966;DHT22;11649;48.090;9.754;2023-04-03T03:25:00;4.10;99.90
22966;DHT22;11649;48.090;9.754;2023-04-03T03:27:28;4.10;99.90
22966;DHT22;11649;48.090;9.754;2023-04-03T03:29:54;4.10;99.90
22966;DHT22;11649;48.090;9.754;2023-04-03T03:32:39;4.10;99.90
22966;DHT22;11649;48.090;9.754;2023-04-03T03:35:06;4.10;99.90
22966;DHT22;11649;48.090;9.754;2023-04-03T03:37:33;4.10;99.90
22966;DHT22;11649;48.090;9.754;2023-04-03T03:40:00;4.10;99.90
22966;DHT22;11649;48.090;9.754;2023-04-03T03:42:27;4.10;99.90
22966;DHT22;11649;48.090;9.754;2023-04-03T03:44:53;4.10;99.90
22966;DHT22;11649;48.090;9.754;2023-04-03T03:47:20;4.10;99.90
22966;DHT22;11649;48.090;9.754;2023-04-03T03:49:47;4.10;99.90
22966;DHT22;11649;48.090;9.754;2023-04-03T03:52:14;4.10;99.90
22966;DHT22;11649;48.090;9.754;2023-04-03T03:54:41;4.20;99.90
22966;DHT22;11649;48.090;9.754;2023-04-03T03:57:08;4.20;99.90
22966;DHT22;11649;48.090;9.754;2023-04-03T03:59:34;4.20;99.90
22966;DHT22;11649;48.090;9.754;2023-04-03T04:02:01;4.20;99.90
22966;DHT22;11649;48.090;9.754;2023-04-03T04:04:29;4.10;99.90
22966;DHT22;11649;48.090;9.754;2023-04-03T04:06:55;4.10;99.90
22966;DHT22;11649;48.090;9.754;2023-04-03T04:09:22;4.10;99.90
22966;DHT22;11649;48.090;9.754;2023-04-03T04:11:49;4.10;99.90
22966;DHT22;11649;48.090;9.754;2023-04-03T04:14:16;4.10;99.90
22966;DHT22;11649;48.090;9.754;2023-04-03T04:16:43;4.20;99.90
22966;DHT22;11649;48.090;9.754;2023-04-03T04:19:09;4.10;99.90
22966;DHT22;11649;48.090;9.754;2023-04-03T04:21:36;4.10;99.90
22966;DHT22;11649;48.090;9.754;2023-04-03T04:24:03;4.10;99.90
22966;DHT22;11649;48.090;9.754;2023-04-03T04:26:30;4.10;99.90
22966;DHT22;11649;48.090;9.754;2023-04-03T04:28:57;4.00;99.90
22966;DHT22;11649;48.090;9.754;2023-04-03T04:31:23;4.00;99.90
22966;DHT22;11649;48.090;9.754;2023-04-03T04:33:51;4.00;99.90
22966;DHT22;11649;48.090;9.754;2023-04-03T04:36:17;4.10;99.90
22966;DHT22;11649;48.090;9.754;2023-04-03T04:38:44;4.10;99.90
22966;DHT22;11649;48.090;9.754;2023-04-03T04:41:11;4.10;99.90
22966;DHT22;11649;48.090;9.754;2023-04-03T04:43:38;4.10;99.90
22966;DHT22;11649;48.090;9.754;2023-04-03T04:46:08;4.00;99.90
22966;DHT22;11649;48.090;9.754;2023-04-03T04:48:35;4.00;99.90
22966;DHT22;11649;48.090;9.754;2023-04-03T04:51:02;3.90;99.90
22966;DHT22;11649;48.090;9.754;2023-04-03T04:53:29;4.00;99.90
22966;DHT22;11649;48.090;9.754;2023-04-03T04:55:56;4.10;99.90
22966;DHT22;11649;48.090;9.754;2023-04-03T04:58:23;4.10;99.90
22966;DHT22;11649;48.090;9.754;2023-04-03T05:00:50;4.10;99.90
22966;DHT22;11649;48.090;9.754;2023-04-03T05:03:24;4.10;99.90
22966;DHT22;11649;48.090;9.754;2023-04-03T05:05:50;4.10;99.90
22966;DHT22;11649;48.090;9.754;2023-04-03T05:08:17;4.10;99.90
22966;DHT22;11649;48.090;9.754;2023-04-03T05:10:45;4.10;99.90
22966;DHT22;11649;48.090;9.754;2023-04-03T05:13:13;4.00;99.90
22966;DHT22;11649;48.090;9.754;2023-04-03T05:15:39;4.10;99.90
22966;DHT22;11649;48.090;9.754;2023-04-03T05:18:08;4.20;99.90
22966;DHT22;11649;48.090;9.754;2023-04-03T05:20:35;4.20;99.90
22966;DHT22;11649;48.090;9.754;2023-04-03T05:23:02;4.10;99.90
22966;DHT22;11649;48.090;9.754;2023-04-03T05:25:29;4.20;99.90
22966;DHT22;11649;48.090;9.754;2023-04-03T05:27:56;4.20;99.90
22966;DHT22;11649;48.090;9.754;2023-04-03T05:30:23;4.10;99.90
22966;DHT22;11649;48.090;9.754;2023-04-03T05:32:50;4.10;99.90
22966;DHT22;11649;48.090;9.754;2023-04-03T05:35:16;4.00;99.90
22966;DHT22;11649;48.090;9.754;2023-04-03T05:37:44;4.10;99.90
22966;DHT22;11649;48.090;9.754;2023-04-03T05:40:10;4.10;99.90
22966;DHT22;11649;48.090;9.754;2023-04-03T05:42:38;4.00;99.90
22966;DHT22;11649;48.090;9.754;2023-04-03T05:45:05;4.00;99.90
22966;DHT22;11649;48.090;9.754;2023-04-03T05:47:32;4.10;99.90
22966;DHT22;11649;48.090;9.754;2023-04-03T05:49:58;4.10;99.90
22966;DHT22;11649;48.090;9.754;2023-04-03T05:52:28;4.10;99.90
22966;DHT22;11649;48.090;9.754;2023-04-03T05:54:55;4.10;99.90
22966;DHT22;11649;48.090;9.754;2023-04-03T05:57:22;4.10;99.90
22966;DHT22;11649;48.090;9.754;2023-04-03T05:59:49;4.20;99.90
22966;DHT22;11649;48.090;9.754;2023-04-03T06:02:20;4.20;99.90
22966;DHT22;11649;48.090;9.754;2023-04-03T06:04:47;4.10;99.90
22966;DHT22;11649;48.090;9.754;2023-04-03T06:07:17;4.10;99.90
22966;DHT22;11649;48.090;9.754;2023-04-03T06:09:45;4.10;99.90
22966;DHT22;11649;48.090;9.754;2023-04-03T06:12:12;4.20;99.90
22966;DHT22;11649;48.090;9.754;2023-04-03T06:14:39;4.20;99.90
22966;DHT22;11649;48.090;9.754;2023-04-03T06:17:07;4.20;99.90
22966;DHT22;11649;48.090;9.754;2023-04-03T06:19:35;4.20;99.90
22966;DHT22;11649;48.090;9.754;2023-04-03T06:22:02;4.30;99.90
22966;DHT22;11649;48.090;9.754;2023-04-03T06:28:16;4.20;99.90
22966;DHT22;11649;48.090;9.754;2023-04-03T06:30:45;4.20;99.90
22966;DHT22;11649;48.090;9.754;2023-04-03T06:33:12;4.30;99.90
22966;DHT22;11649;48.090;9.754;2023-04-03T06:35:39;4.30;99.90
22966;DHT22;11649;48.090;9.754;2023-04-03T06:38:05;4.40;99.90
22966;DHT22;11649;48.090;9.754;2023-04-03T06:40:36;4.40;99.90
22966;DHT22;11649;48.090;9.754;2023-04-03T06:43:03;4.30;99.90
22966;DHT22;11649;48.090;9.754;2023-04-03T06:45:30;4.40;99.90
22966;DHT22;11649;48.090;9.754;2023-04-03T06:47:57;4.40;99.90
22966;DHT22;11649;48.090;9.754;2023-04-03T06:50:24;4.40;99.90
22966;DHT22;11649;48.090;9.754;2023-04-03T06:52:50;4.50;99.90
22966;DHT22;11649;48.090;9.754;2023-04-03T06:55:17;4.50;99.90
22966;DHT22;11649;48.090;9.754;2023-04-03T06:57:44;4.50;99.90
22966;DHT22;11649;48.090;9.754;2023-04-03T07:00:12;4.50;99.90
22966;DHT22;11649;48.090;9.754;2023-04-03T07:02:39;4.50;99.90
22966;DHT22;11649;48.090;9.754;2023-04-03T07:05:06;4.50;99.90
22966;DHT22;11649;48.090;9.754;2023-04-03T07:07:33;4.60;99.90
22966;DHT22;11649;48.090;9.754;2023-04-03T07:10:00;4.60;99.90
22966;DHT22;11649;48.090;9.754;2023-04-03T07:12:27;4.60;99.90
22966;DHT22;11649;48.090;9.754;2023-04-03T07:14:54;4.70;99.90
22966;DHT22;11649;48.090;9.754;2023-04-03T07:17:21;4.70;99.90
22966;DHT22;11649;48.090;9.754;2023-04-03T07:19:48;4.80;99.90
22966;DHT22;11649;48.090;9.754;2023-04-03T07:22:14;4.80;99.90
22966;DHT22;11649;48.090;9.754;2023-04-03T07:24:41;4.70;99.90
22966;DHT22;11649;48.090;9.754;2023-04-03T07:27:08;4.70;99.90
22966;DHT22;11649;48.090;9.754;2023-04-03T07:29:35;4.80;99.90
22966;DHT22;11649;48.090;9.754;2023-04-03T07:32:02;4.90;99.90
22966;DHT22;11649;48.090;9.754;2023-04-03T07:34:30;4.90;99.90
22966;DHT22;11649;48.090;9.754;2023-04-03T07:36:57;4.80;99.90
22966;DHT22;11649;48.090;9.754;2023-04-03T07:39:24;4.90;99.90
22966;DHT22;11649;48.090;9.754;2023-04-03T07:41:51;5.00;99.90
22966;DHT22;11649;48.090;9.754;2023-04-03T07:44:18;5.00;99.90
22966;DHT22;11649;48.090;9.754;2023-04-03T07:46:45;5.90;99.90
22966;DHT22;11649;48.090;9.754;2023-04-03T07:49:13;5.10;99.90
22966;DHT22;11649;48.090;9.754;2023-04-03T07:51:40;5.10;99.90
22966;DHT22;11649;48.090;9.754;2023-04-03T07:54:07;5.20;99.90
22966;DHT22;11649;48.090;9.754;2023-04-03T07:56:34;5.20;99.90
22966;DHT22;11649;48.090;9.754;2023-04-03T07:59:00;5.10;99.90
22966;DHT22;11649;48.090;9.754;2023-04-03T08:01:27;5.10;99.90
22966;DHT22;11649;48.090;9.754;2023-04-03T08:03:54;5.10;99.90
22966;DHT22;11649;48.090;9.754;2023-04-03T08:06:21;5.20;99.90
22966;DHT22;11649;48.090;9.754;2023-04-03T08:09:03;5.20;99.90
22966;DHT22;11649;48.090;9.754;2023-04-03T08:11:31;5.20;99.90
22966;DHT22;11649;48.090;9.754;2023-04-03T08:13:57;5.20;99.90
22966;DHT22;11649;48.090;9.754;2023-04-03T08:16:24;5.20;99.90
22966;DHT22;11649;48.090;9.754;2023-04-03T08:18:54;5.20;99.90
22966;DHT22;11649;48.090;9.754;2023-04-03T08:21:21;5.20;99.90
22966;DHT22;11649;48.090;9.754;2023-04-03T08:23:49;5.30;99.90
22966;DHT22;11649;48.090;9.754;2023-04-03T08:26:21;5.20;99.90
22966;DHT22;11649;48.090;9.754;2023-04-03T08:28:49;5.20;99.90
22966;DHT22;11649;48.090;9.754;2023-04-03T08:31:18;5.30;99.90
22966;DHT22;11649;48.090;9.754;2023-04-03T08:33:46;5.40;99.90
22966;DHT22;11649;48.090;9.754;2023-04-03T08:36:22;5.40;99.90
22966;DHT22;11649;48.090;9.754;2023-04-03T08:38:50;5.50;99.90
22966;DHT22;11649;48.090;9.754;2023-04-03T08:41:30;5.60;99.90
22966;DHT22;11649;48.090;9.754;2023-04-03T08:49:54;5.60;99.90
22966;DHT22;11649;48.090;9.754;2023-04-03T08:55:05;5.70;99.90
22966;DHT22;11649;48.090;9.754;2023-04-03T08:57:36;5.70;99.90
22966;DHT22;11649;48.090;9.754;2023-04-03T09:02:44;5.60;99.90
22966;DHT22;11649;48.090;9.754;2023-04-03T09:05:16;5.50;99.90
22966;DHT22;11649;48.090;9.754;2023-04-03T09:07:47;5.60;99.90
22966;DHT22;11649;48.090;9.754;2023-04-03T09:10:24;5.70;99.90
22966;DHT22;11649;48.090;9.754;2023-04-03T09:13:04;5.70;99.90
22966;DHT22;11649;48.090;9.754;2023-04-03T09:15:32;5.80;99.90
22966;DHT22;11649;48.090;9.754;2023-04-03T09:18:06;5.80;99.90
22966;DHT22;11649;48.090;9.754;2023-04-03T09:26:09;5.80;99.90
22966;DHT22;11649;48.090;9.754;2023-04-03T09:28:40;5.90;99.90
22966;DHT22;11649;48.090;9.754;2023-04-03T09:31:18;5.90;99.90
22966;DHT22;11649;48.090;9.754;2023-04-03T09:33:49;6.10;99.90
22966;DHT22;11649;48.090;9.754;2023-04-03T09:36:39;6.20;99.90
22966;DHT22;11649;48.090;9.754;2023-04-03T09:39:12;6.30;99.90
22966;DHT22;11649;48.090;9.754;2023-04-03T09:41:40;6.30;99.90
22966;DHT22;11649;48.090;9.754;2023-04-03T09:44:21;6.30;99.90
22966;DHT22;11649;48.090;9.754;2023-04-03T09:46:49;6.40;99.90
22966;DHT22;11649;48.090;9.754;2023-04-03T09:49:17;6.50;99.60
22966;DHT22;11649;48.090;9.754;2023-04-03T09:51:44;6.60;99.70
22966;DHT22;11649;48.090;9.754;2023-04-03T09:54:33;6.60;98.90
22966;DHT22;11649;48.090;9.754;2023-04-03T09:57:22;6.50;99.90
22966;DHT22;11649;48.090;9.754;2023-04-03T09:59:59;6.70;95.50
22966;DHT22;11649;48.090;9.754;2023-04-03T10:02:44;6.80;93.50
22966;DHT22;11649;48.090;9.754;2023-04-03T10:05:32;6.80;98.60
22966;DHT22;11649;48.090;9.754;2023-04-03T10:11:22;6.90;96.10
22966;DHT22;11649;48.090;9.754;2023-04-03T10:13:52;6.80;95.70
22966;DHT22;11649;48.090;9.754;2023-04-03T10:16:31;6.60;95.30
22966;DHT22;11649;48.090;9.754;2023-04-03T10:28:04;6.40;99.90
22966;DHT22;11649;48.090;9.754;2023-04-03T10:34:06;6.70;95.00
22966;DHT22;11649;48.090;9.754;2023-04-03T10:39:53;6.80;96.70
22966;DHT22;11649;48.090;9.754;2023-04-03T10:48:33;7.40;94.40
22966;DHT22;11649;48.090;9.754;2023-04-03T10:51:29;7.50;93.60
22966;DHT22;11649;48.090;9.754;2023-04-03T10:54:13;7.60;91.40
22966;DHT22;11649;48.090;9.754;2023-04-03T10:57:03;7.50;92.20
22966;DHT22;11649;48.090;9.754;2023-04-03T10:59:42;7.50;92.60
22966;DHT22;11649;48.090;9.754;2023-04-03T11:02:23;7.40;91.50
22966;DHT22;11649;48.090;9.754;2023-04-03T11:05:02;7.60;90.90
22966;DHT22;11649;48.090;9.754;2023-04-03T11:07:33;7.70;91.40
22966;DHT22;11649;48.090;9.754;2023-04-03T11:13:06;7.70;85.80
22966;DHT22;11649;48.090;9.754;2023-04-03T11:15:34;7.80;90.00
22966;DHT22;11649;48.090;9.754;2023-04-03T11:18:06;7.90;83.10
22966;DHT22;11649;48.090;9.754;2023-04-03T11:20:38;8.20;89.50
22966;DHT22;11649;48.090;9.754;2023-04-03T11:23:21;7.80;90.10
22966;DHT22;11649;48.090;9.754;2023-04-03T11:25:55;7.60;90.30
22966;DHT22;11649;48.090;9.754;2023-04-03T11:28:23;7.60;91.80
22966;DHT22;11649;48.090;9.754;2023-04-03T11:31:20;7.60;84.60
22966;DHT22;11649;48.090;9.754;2023-04-03T11:34:15;7.50;84.70
22966;DHT22;11649;48.090;9.754;2023-04-03T11:36:49;7.50;87.60
22966;DHT22;11649;48.090;9.754;2023-04-03T11:42:22;7.70;91.20
22966;DHT22;11649;48.090;9.754;2023-04-03T11:58:10;8.30;85.00
22966;DHT22;11649;48.090;9.754;2023-04-03T12:23:59;7.50;85.30
22966;DHT22;11649;48.090;9.754;2023-04-03T12:31:50;7.60;80.90
22966;DHT22;11649;48.090;9.754;2023-04-03T12:40:21;7.80;82.10
22966;DHT22;11649;48.090;9.754;2023-04-03T12:45:49;7.80;80.30
22966;DHT22;11649;48.090;9.754;2023-04-03T12:48:22;7.80;80.40
22966;DHT22;11649;48.090;9.754;2023-04-03T12:50:51;7.80;82.10
22966;DHT22;11649;48.090;9.754;2023-04-03T12:53:22;7.90;84.50
22966;DHT22;11649;48.090;9.754;2023-04-03T12:56:23;8.10;75.10
22966;DHT22;11649;48.090;9.754;2023-04-03T12:58:52;8.10;76.20
22966;DHT22;11649;48.090;9.754;2023-04-03T13:01:24;8.10;78.00
22966;DHT22;11649;48.090;9.754;2023-04-03T13:03:57;8.20;81.50
22966;DHT22;11649;48.090;9.754;2023-04-03T13:06:28;8.20;77.80
22966;DHT22;11649;48.090;9.754;2023-04-03T13:08:59;8.30;74.80
22966;DHT22;11649;48.090;9.754;2023-04-03T13:11:35;8.30;75.50
22966;DHT22;11649;48.090;9.754;2023-04-03T13:14:12;8.20;76.00
22966;DHT22;11649;48.090;9.754;2023-04-03T13:16:40;8.30;77.80
22966;DHT22;11649;48.090;9.754;2023-04-03T13:19:16;8.50;75.40
22966;DHT22;11649;48.090;9.754;2023-04-03T13:21:44;8.60;74.50
22966;DHT22;11649;48.090;9.754;2023-04-03T13:24:12;8.60;77.70
22966;DHT22;11649;48.090;9.754;2023-04-03T13:26:42;8.50;84.30
22966;DHT22;11649;48.090;9.754;2023-04-03T13:29:31;8.70;77.80
22966;DHT22;11649;48.090;9.754;2023-04-03T13:31:59;8.80;78.10
22966;DHT22;11649;48.090;9.754;2023-04-03T13:34:29;8.80;78.10
22966;DHT22;11649;48.090;9.754;2023-04-03T13:37:03;8.70;73.80
22966;DHT22;11649;48.090;9.754;2023-04-03T13:39:33;8.60;75.10
22966;DHT22;11649;48.090;9.754;2023-04-03T13:45:26;8.60;76.50
22966;DHT22;11649;48.090;9.754;2023-04-03T13:48:19;8.50;72.70
22966;DHT22;11649;48.090;9.754;2023-04-03T13:50:54;8.30;74.30
22966;DHT22;11649;48.090;9.754;2023-04-03T13:53:21;8.20;75.60
22966;DHT22;11649;48.090;9.754;2023-04-03T13:55:56;8.10;77.30
22966;DHT22;11649;48.090;9.754;2023-04-03T13:58:26;8.10;76.40
22966;DHT22;11649;48.090;9.754;2023-04-03T14:00:58;8.00;81.00
22966;DHT22;11649;48.090;9.754;2023-04-03T14:03:33;8.00;79.20
22966;DHT22;11649;48.090;9.754;2023-04-03T14:06:00;7.90;83.00
22966;DHT22;11649;48.090;9.754;2023-04-03T14:08:28;7.90;79.90
22966;DHT22;11649;48.090;9.754;2023-04-03T14:11:14;7.60;85.30
22966;DHT22;11649;48.090;9.754;2023-04-03T14:13:41;7.60;85.60
22966;DHT22;11649;48.090;9.754;2023-04-03T14:16:13;7.60;85.30
22966;DHT22;11649;48.090;9.754;2023-04-03T14:18:42;7.60;82.80
22966;DHT22;11649;48.090;9.754;2023-04-03T14:21:12;7.50;82.00
22966;DHT22;11649;48.090;9.754;2023-04-03T14:23:39;7.60;80.20
22966;DHT22;11649;48.090;9.754;2023-04-03T14:26:24;7.70;80.80
22966;DHT22;11649;48.090;9.754;2023-04-03T14:28:54;7.70;82.50
22966;DHT22;11649;48.090;9.754;2023-04-03T14:31:22;7.80;84.10
22966;DHT22;11649;48.090;9.754;2023-04-03T14:33:49;7.90;77.40
22966;DHT22;11649;48.090;9.754;2023-04-03T14:36:20;8.20;80.70
22966;DHT22;11649;48.090;9.754;2023-04-03T14:38:48;8.10;76.60
22966;DHT22;11649;48.090;9.754;2023-04-03T14:41:18;8.10;78.70
22966;DHT22;11649;48.090;9.754;2023-04-03T14:43:46;8.20;77.40
22966;DHT22;11649;48.090;9.754;2023-04-03T14:48:43;8.10;81.60
22966;DHT22;11649;48.090;9.754;2023-04-03T14:51:12;8.30;78.50
22966;DHT22;11649;48.090;9.754;2023-04-03T14:53:40;8.50;82.70
22966;DHT22;11649;48.090;9.754;2023-04-03T14:56:19;8.50;78.10
22966;DHT22;11649;48.090;9.754;2023-04-03T14:58:57;8.20;77.60
22966;DHT22;11649;48.090;9.754;2023-04-03T15:01:25;7.90;80.50
22966;DHT22;11649;48.090;9.754;2023-04-03T15:03:52;7.60;84.70
22966;DHT22;11649;48.090;9.754;2023-04-03T15:06:19;7.40;83.00
22966;DHT22;11649;48.090;9.754;2023-04-03T15:08:47;7.20;81.00
22966;DHT22;11649;48.090;9.754;2023-04-03T15:11:15;7.20;84.70
22966;DHT22;11649;48.090;9.754;2023-04-03T15:13:42;7.30;84.60
22966;DHT22;11649;48.090;9.754;2023-04-03T15:16:18;7.40;84.90
22966;DHT22;11649;48.090;9.754;2023-04-03T15:18:46;7.40;79.30
22966;DHT22;11649;48.090;9.754;2023-04-03T15:21:13;7.60;82.00
22966;DHT22;11649;48.090;9.754;2023-04-03T15:23:40;7.70;85.30
22966;DHT22;11649;48.090;9.754;2023-04-03T15:26:08;8.20;84.30
22966;DHT22;11649;48.090;9.754;2023-04-03T15:28:40;9.10;78.70
22966;DHT22;11649;48.090;9.754;2023-04-03T15:31:08;9.90;72.50
22966;DHT22;11649;48.090;9.754;2023-04-03T15:33:35;10.20;69.00
22966;DHT22;11649;48.090;9.754;2023-04-03T15:36:03;10.10;67.70
22966;DHT22;11649;48.090;9.754;2023-04-03T15:38:37;9.70;69.20
22966;DHT22;11649;48.090;9.754;2023-04-03T15:41:05;9.30;69.20
22966;DHT22;11649;48.090;9.754;2023-04-03T15:43:32;8.70;68.30
22966;DHT22;11649;48.090;9.754;2023-04-03T15:46:00;8.20;69.10
22966;DHT22;11649;48.090;9.754;2023-04-03T15:48:28;7.90;72.50
22966;DHT22;11649;48.090;9.754;2023-04-03T15:50:55;7.70;73.40
22966;DHT22;11649;48.090;9.754;2023-04-03T15:53:24;7.60;72.00
22966;DHT22;11649;48.090;9.754;2023-04-03T15:55:51;7.60;73.80
22966;DHT22;11649;48.090;9.754;2023-04-03T15:58:18;7.40;74.90
22966;DHT22;11649;48.090;9.754;2023-04-03T16:00:45;7.40;77.20
22966;DHT22;11649;48.090;9.754;2023-04-03T16:03:16;7.50;72.50
22966;DHT22;11649;48.090;9.754;2023-04-03T16:05:43;7.50;71.70
22966;DHT22;11649;48.090;9.754;2023-04-03T16:08:10;7.40;73.00
22966;DHT22;11649;48.090;9.754;2023-04-03T16:10:38;7.20;72.50
22966;DHT22;11649;48.090;9.754;2023-04-03T16:13:06;7.10;75.60
22966;DHT22;11649;48.090;9.754;2023-04-03T16:15:34;6.90;78.80
22966;DHT22;11649;48.090;9.754;2023-04-03T16:18:02;6.90;79.40
22966;DHT22;11649;48.090;9.754;2023-04-03T16:20:29;6.80;79.30
22966;DHT22;11649;48.090;9.754;2023-04-03T16:23:00;6.80;79.80
22966;DHT22;11649;48.090;9.754;2023-04-03T16:25:27;6.80;84.00
22966;DHT22;11649;48.090;9.754;2023-04-03T16:27:54;6.80;82.80
22966;DHT22;11649;48.090;9.754;2023-04-03T16:30:22;6.70;82.10
22966;DHT22;11649;48.090;9.754;2023-04-03T16:32:49;6.70;78.70
22966;DHT22;11649;48.090;9.754;2023-04-03T16:35:16;6.70;78.50
22966;DHT22;11649;48.090;9.754;2023-04-03T16:37:43;6.60;73.30
22966;DHT22;11649;48.090;9.754;2023-04-03T16:40:10;6.50;74.00
22966;DHT22;11649;48.090;9.754;2023-04-03T16:42:38;6.50;73.30
22966;DHT22;11649;48.090;9.754;2023-04-03T16:45:06;6.30;75.20
22966;DHT22;11649;48.090;9.754;2023-04-03T16:47:33;6.30;74.10
22966;DHT22;11649;48.090;9.754;2023-04-03T16:50:00;6.30;75.00
22966;DHT22;11649;48.090;9.754;2023-04-03T16:52:27;6.40;72.10
22966;DHT22;11649;48.090;9.754;2023-04-03T16:54:54;6.30;73.80
22966;DHT22;11649;48.090;9.754;2023-04-03T16:57:22;6.30;73.40
22966;DHT22;11649;48.090;9.754;2023-04-03T16:59:51;6.30;76.70
22966;DHT22;11649;48.090;9.754;2023-04-03T17:02:20;6.30;71.90
22966;DHT22;11649;48.090;9.754;2023-04-03T17:04:46;6.30;73.20
22966;DHT22;11649;48.090;9.754;2023-04-03T17:07:16;6.20;76.40
22966;DHT22;11649;48.090;9.754;2023-04-03T17:09:43;6.10;77.60
22966;DHT22;11649;48.090;9.754;2023-04-03T17:12:09;6.10;76.00
22966;DHT22;11649;48.090;9.754;2023-04-03T17:14:36;6.10;78.00
22966;DHT22;11649;48.090;9.754;2023-04-03T17:17:03;6.10;78.90
22966;DHT22;11649;48.090;9.754;2023-04-03T17:19:30;6.00;77.70
22966;DHT22;11649;48.090;9.754;2023-04-03T17:21:58;6.00;81.10
22966;DHT22;11649;48.090;9.754;2023-04-03T17:24:25;6.00;75.50
22966;DHT22;11649;48.090;9.754;2023-04-03T17:26:52;6.00;75.60
22966;DHT22;11649;48.090;9.754;2023-04-03T17:29:18;5.90;81.40
22966;DHT22;11649;48.090;9.754;2023-04-03T17:31:46;7.30;81.70
22966;DHT22;11649;48.090;9.754;2023-04-03T17:34:12;5.90;79.80
22966;DHT22;11649;48.090;9.754;2023-04-03T17:36:40;5.80;77.30
22966;DHT22;11649;48.090;9.754;2023-04-03T17:39:07;5.70;80.70
22966;DHT22;11649;48.090;9.754;2023-04-03T17:41:34;5.70;80.60
22966;DHT22;11649;48.090;9.754;2023-04-03T17:44:02;5.70;79.10
22966;DHT22;11649;48.090;9.754;2023-04-03T17:46:29;5.60;78.80
22966;DHT22;11649;48.090;9.754;2023-04-03T17:48:57;5.60;78.60
22966;DHT22;11649;48.090;9.754;2023-04-03T17:51:28;5.50;76.20